Time;durP1;ratioP1;P1;durP2;ratioP2;P2;SDS_P1;SDS_P2;PMS_P1;PMS_P2;Temp;Humidity;BMP_temperature;BMP_pressure;BME280_temperature;BME280_humidity;BME280_pressure;Samples;Min_cycle;Max_cycle;Signal;HPM_P1;HPM_P2
2021/05/17 00:01:05;;;;;;;5.13;1.65;;;15.10;59.20;;;;;;5046259;28;20108;-64
2021/05/17 00:03:36;;;;;;;7.95;1.67;;;15.20;58.90;;;;;;5048044;28;20029;-72
2021/05/17 00:06:04;;;;;;;4.75;1.50;;;15.40;58.70;;;;;;5048376;28;20055;-75
2021/05/17 00:08:31;;;;;;;5.88;1.48;;;15.50;59.50;;;;;;5047660;28;20037;-75
2021/05/17 00:10:59;;;;;;;5.53;1.60;;;15.80;59.00;;;;;;5047510;28;20055;-73
2021/05/17 00:13:27;;;;;;;6.82;1.60;;;15.80;57.10;;;;;;5046219;28;20028;-72
2021/05/17 00:15:54;;;;;;;4.65;1.63;;;15.90;57.50;;;;;;5047905;28;20040;-73
2021/05/17 00:18:22;;;;;;;8.70;2.00;;;15.90;58.90;;;;;;5046776;28;20131;-66
2021/05/17 00:20:50;;;;;;;5.00;1.20;;;16.00;57.30;;;;;;5047903;28;20036;-72
2021/05/17 00:23:18;;;;;;;6.00;1.10;;;16.10;56.90;;;;;;5047166;28;20810;-62
2021/05/17 00:25:45;;;;;;;4.38;2.08;;;16.20;56.00;;;;;;5047000;28;20049;-69
2021/05/17 00:28:13;;;;;;;11.70;2.22;;;16.30;57.00;;;;;;5046802;28;20116;-64
2021/05/17 00:30:41;;;;;;;5.05;1.73;;;16.50;56.30;;;;;;5047746;28;20108;-65
2021/05/17 00:33:08;;;;;;;3.88;1.15;;;16.70;55.00;;;;;;5046643;28;20025;-64
2021/05/17 00:35:36;;;;;;;7.47;3.28;;;17.00;54.40;;;;;;5047217;28;20111;-73
2021/05/17 00:38:03;;;;;;;6.05;0.98;;;17.00;53.20;;;;;;5046525;28;20029;-64
2021/05/17 00:40:34;;;;;;;5.93;2.08;;;17.20;53.60;;;;;;5045631;28;20087;-70
2021/05/17 00:43:05;;;;;;;11.18;1.90;;;17.30;52.20;;;;;;5047440;28;20040;-62
2021/05/17 00:45:33;;;;;;;6.50;1.00;;;17.30;51.80;;;;;;5047189;28;20398;-62
2021/05/17 00:48:01;;;;;;;4.15;1.00;;;17.40;51.50;;;;;;5046982;28;20128;-63
2021/05/17 00:50:29;;;;;;;3.22;0.60;;;17.50;51.30;;;;;;5046998;28;20583;-70
2021/05/17 00:52:57;;;;;;;4.10;0.70;;;17.60;50.60;;;;;;5046187;28;20074;-63
2021/05/17 00:55:26;;;;;;;4.43;1.20;;;17.70;51.60;;;;;;5045352;28;20041;-63
2021/05/17 00:57:53;;;;;;;1.30;0.70;;;17.70;51.00;;;;;;5046369;28;20115;-63
2021/05/17 01:00:26;;;;;;;7.45;1.30;;;17.80;51.60;;;;;;5046740;28;20022;-70
2021/05/17 01:02:54;;;;;;;4.68;0.98;;;17.80;49.60;;;;;;5046575;28;20103;-72
2021/05/17 01:05:21;;;;;;;2.85;0.77;;;17.70;50.50;;;;;;5045907;28;20044;-62
2021/05/17 01:07:50;;;;;;;5.72;0.93;;;17.80;49.30;;;;;;5046595;28;20025;-71
2021/05/17 01:10:20;;;;;;;0.90;0.60;;;17.90;50.30;;;;;;5046011;28;20028;-63
2021/05/17 01:12:49;;;;;;;2.65;0.70;;;18.20;49.30;;;;;;5045879;28;20413;-63
2021/05/17 01:15:18;;;;;;;1.92;0.70;;;18.20;49.10;;;;;;5044989;28;20024;-63
2021/05/17 01:17:45;;;;;;;4.63;0.82;;;18.40;48.70;;;;;;5041916;28;20078;-71
2021/05/17 01:20:27;;;;;;;4.78;0.77;;;18.30;48.20;;;;;;5045346;28;20424;-73
2021/05/17 01:23:09;;;;;;;5.15;1.13;;;18.10;48.40;;;;;;5046095;28;20045;-64
2021/05/17 01:25:36;;;;;;;7.50;0.90;;;18.20;49.70;;;;;;5046084;28;20468;-62
2021/05/17 01:28:04;;;;;;;3.85;0.90;;;18.30;48.70;;;;;;5046443;28;20059;-64
2021/05/17 01:30:31;;;;;;;4.75;0.50;;;18.50;48.50;;;;;;5046465;28;20032;-71
2021/05/17 01:32:59;;;;;;;6.45;1.85;;;18.60;47.70;;;;;;5045357;28;20133;-65
2021/05/17 01:35:26;;;;;;;6.63;1.35;;;18.60;48.20;;;;;;5046515;28;20045;-71
2021/05/17 01:37:54;;;;;;;4.60;0.70;;;18.60;48.00;;;;;;5041290;28;20064;-64
2021/05/17 01:40:22;;;;;;;1.80;0.60;;;18.60;48.10;;;;;;5045575;28;20720;-70
2021/05/17 01:42:52;;;;;;;10.55;1.60;;;18.70;47.40;;;;;;5045334;28;20079;-70
2021/05/17 01:45:19;;;;;;;6.68;1.55;;;18.80;46.80;;;;;;5044325;28;20031;-71
2021/05/17 01:47:46;;;;;;;4.45;1.05;;;18.90;47.20;;;;;;5044200;28;20036;-71
2021/05/17 01:50:16;;;;;;;1.77;0.63;;;19.00;46.20;;;;;;5044783;28;20116;-64
2021/05/17 01:52:44;;;;;;;2.13;0.40;;;19.10;44.30;;;;;;5044540;28;20051;-64
2021/05/17 01:55:13;;;;;;;3.25;0.50;;;19.20;46.10;;;;;;5042494;28;20716;-71
2021/05/17 01:57:40;;;;;;;1.60;0.50;;;19.20;45.10;;;;;;5042987;28;20021;-71
2021/05/17 02:00:13;;;;;;;4.72;3.75;;;19.20;44.80;;;;;;5043990;28;20033;-70
2021/05/17 02:02:40;;;;;;;1.60;0.63;;;19.20;45.10;;;;;;5040087;28;20017;-70
2021/05/17 02:05:08;;;;;;;0.82;0.52;;;19.30;45.50;;;;;;5044473;28;20499;-63
2021/05/17 02:07:36;;;;;;;2.08;0.30;;;19.50;44.60;;;;;;5044815;28;20086;-64
2021/05/17 02:10:06;;;;;;;2.80;0.65;;;19.50;45.20;;;;;;5044428;28;20036;-64
2021/05/17 02:12:35;;;;;;;1.48;0.55;;;19.70;44.90;;;;;;5046322;28;20517;-64
2021/05/17 02:15:03;;;;;;;1.08;0.68;;;19.80;44.70;;;;;;5045627;28;20727;-64
2021/05/17 02:17:31;;;;;;;1.88;0.38;;;19.90;44.80;;;;;;5039897;28;20045;-71
2021/05/17 02:19:59;;;;;;;1.98;0.32;;;19.80;43.50;;;;;;5102191;22;20281;-64
2021/05/17 02:22:26;;;;;;;3.35;0.50;;;19.70;44.50;;;;;;5066221;28;20481;-63
2021/05/17 02:24:54;;;;;;;3.42;0.70;;;19.70;45.20;;;;;;5066466;28;20035;-63
2021/05/17 02:27:22;;;;;;;2.42;0.65;;;19.60;44.50;;;;;;5067075;28;20024;-63
2021/05/17 02:29:49;;;;;;;5.32;1.55;;;19.70;45.60;;;;;;5064525;28;20103;-69
2021/05/17 02:32:24;;;;;;;3.03;0.57;;;19.70;45.40;;;;;;5066449;28;20090;-64
2021/05/17 02:34:52;;;;;;;3.42;0.40;;;19.90;47.20;;;;;;5066168;28;20028;-62
2021/05/17 02:37:20;;;;;;;1.58;0.52;;;20.00;47.70;;;;;;5067104;28;20376;-63
2021/05/17 02:39:48;;;;;;;1.65;0.40;;;20.20;45.10;;;;;;5066058;28;20028;-61
2021/05/17 02:42:18;;;;;;;2.45;0.38;;;20.20;43.80;;;;;;5066153;28;20025;-62
2021/05/17 02:44:46;;;;;;;1.90;0.70;;;20.20;44.90;;;;;;5063473;28;20099;-62
2021/05/17 02:47:14;;;;;;;2.53;0.60;;;20.20;44.60;;;;;;5066147;28;20020;-62
2021/05/17 02:49:41;;;;;;;2.28;0.47;;;20.00;44.00;;;;;;5065245;28;20031;-68
2021/05/17 02:52:09;;;;;;;3.15;0.50;;;19.80;43.80;;;;;;5064086;28;20024;-64
2021/05/17 02:54:42;;;;;;;2.13;0.70;;;19.90;45.30;;;;;;5063704;28;20016;-63
2021/05/17 02:57:14;;;;;;;1.65;0.40;;;20.10;44.10;;;;;;5060015;28;20036;-62
2021/05/17 02:59:59;;;;;;;0.88;0.40;;;20.20;43.30;;;;;;5061142;28;20035;-66
2021/05/17 03:02:31;;;;;;;0.82;0.40;;;20.10;44.20;;;;;;5059620;28;20024;-66
2021/05/17 03:05:00;;;;;;;2.08;0.40;;;20.10;43.60;;;;;;5060109;28;20071;-65
2021/05/17 03:07:36;;;;;;;2.10;0.40;;;20.10;45.20;;;;;;5060727;28;20499;-64
2021/05/17 03:10:05;;;;;;;0.40;0.30;;;20.30;44.50;;;;;;5060702;28;20060;-65
2021/05/17 03:12:34;;;;;;;0.32;0.32;;;20.40;43.50;;;;;;5064309;28;20082;-67
2021/05/17 03:15:03;;;;;;;1.88;0.90;;;20.50;43.60;;;;;;5062308;28;20123;-60
2021/05/17 03:17:31;;;;;;;1.27;0.60;;;20.60;43.10;;;;;;5064816;28;20074;-63
2021/05/17 03:19:58;;;;;;;1.77;1.33;;;20.60;41.90;;;;;;5066920;28;20040;-68
2021/05/17 03:22:31;;;;;;;0.93;0.40;;;20.60;43.30;;;;;;5067640;28;20024;-66
2021/05/17 03:24:59;;;;;;;1.67;0.40;;;20.30;42.40;;;;;;5067090;28;20029;-65
2021/05/17 03:27:28;;;;;;;1.13;0.40;;;20.30;43.00;;;;;;4363143;28;10000732;-68
2021/05/17 03:29:56;;;;;;;1.55;0.40;;;20.30;43.40;;;;;;5065752;28;20036;-68
2021/05/17 03:32:25;;;;;;;0.70;0.40;;;20.30;44.20;;;;;;5066222;28;20483;-62
2021/05/17 03:34:53;;;;;;;2.20;0.57;;;20.50;42.40;;;;;;5066013;28;20031;-65
2021/05/17 03:37:21;;;;;;;2.17;0.60;;;20.50;43.60;;;;;;5064681;28;20509;-68
2021/05/17 03:39:49;;;;;;;1.40;0.98;;;20.70;43.30;;;;;;5063588;28;20681;-66
2021/05/17 03:42:17;;;;;;;2.03;0.35;;;20.80;42.50;;;;;;5067121;28;20027;-65
2021/05/17 03:44:45;;;;;;;1.05;0.40;;;20.80;42.30;;;;;;5065063;28;20564;-62
2021/05/17 03:47:12;;;;;;;0.50;0.35;;;20.70;42.50;;;;;;5072025;28;20316;-63
2021/05/17 03:49:40;;;;;;;3.42;0.38;;;20.70;42.60;;;;;;5064415;28;20866;-62
2021/05/17 03:52:07;;;;;;;1.38;0.50;;;20.40;43.30;;;;;;5063296;28;20039;-66
2021/05/17 03:54:35;;;;;;;2.70;0.80;;;20.30;43.10;;;;;;5063280;28;20090;-61
2021/05/17 03:57:04;;;;;;;1.98;0.52;;;20.40;41.90;;;;;;5062761;28;20047;-66
2021/05/17 03:59:33;;;;;;;0.52;0.20;;;20.50;42.20;;;;;;5063482;28;20039;-69
2021/05/17 04:02:00;;;;;;;0.20;0.20;;;20.40;41.10;;;;;;5062556;28;20843;-61
2021/05/17 04:04:31;;;;;;;0.20;0.20;;;20.40;41.80;;;;;;5063552;28;20153;-68
2021/05/17 04:07:30;;;;;;;1.83;0.30;;;20.40;41.20;;;;;;5063540;28;20016;-65
2021/05/17 04:15:16;;;;;;;1.67;0.57;;;20.90;42.40;;;;;;5058216;28;20067;-65
2021/05/17 04:17:44;;;;;;;1.13;0.40;;;21.00;41.50;;;;;;5060624;28;20443;-61
2021/05/17 04:20:11;;;;;;;0.40;0.20;;;21.10;41.90;;;;;;5063904;28;20052;-66
2021/05/17 04:22:39;;;;;;;0.43;0.30;;;21.20;43.00;;;;;;5064155;28;20029;-61
2021/05/17 04:25:07;;;;;;;1.40;0.40;;;21.20;41.70;;;;;;5061622;28;20063;-63
2021/05/17 04:27:34;;;;;;;0.65;0.40;;;21.20;41.90;;;;;;5060853;28;20020;-65
2021/05/17 04:30:02;;;;;;;2.75;0.47;;;21.00;41.30;;;;;;5061221;28;20036;-69
2021/05/17 04:32:29;;;;;;;0.45;0.30;;;20.90;41.80;;;;;;5059853;28;20065;-62
2021/05/17 04:34:57;;;;;;;1.02;0.40;;;20.80;40.40;;;;;;5060710;28;20060;-63
2021/05/17 04:37:24;;;;;;;0.68;0.30;;;20.90;42.40;;;;;;5060733;28;20126;-62
2021/05/17 04:39:52;;;;;;;0.35;0.30;;;20.90;40.40;;;;;;5061037;28;20424;-68
2021/05/17 04:42:19;;;;;;;2.05;0.57;;;20.80;40.80;;;;;;5062379;28;20107;-65
2021/05/17 04:44:46;;;;;;;1.98;0.35;;;20.80;41.70;;;;;;5062329;28;20013;-63
2021/05/17 04:47:14;;;;;;;2.53;0.40;;;20.70;43.00;;;;;;5062081;28;20016;-63
2021/05/17 04:49:41;;;;;;;1.92;0.60;;;20.70;42.60;;;;;;5062146;28;20043;-65
2021/05/17 04:52:08;;;;;;;0.52;0.20;;;20.40;43.90;;;;;;5060464;28;20056;-66
2021/05/17 04:54:36;;;;;;;0.93;0.43;;;20.30;44.30;;;;;;5061879;28;20056;-62
2021/05/17 04:57:03;;;;;;;2.50;0.45;;;20.40;43.00;;;;;;5060119;28;20078;-67
2021/05/17 04:59:30;;;;;;;3.70;1.35;;;20.40;42.90;;;;;;5060747;28;20074;-63
2021/05/17 05:01:58;;;;;;;3.47;1.20;;;20.50;43.20;;;;;;5061158;28;20021;-61
2021/05/17 05:04:25;;;;;;;3.28;0.70;;;20.60;43.60;;;;;;5059087;28;20024;-68
2021/05/17 05:06:52;;;;;;;1.15;0.50;;;20.60;42.60;;;;;;5059768;28;20031;-69
2021/05/17 05:09:19;;;;;;;2.67;0.60;;;20.70;43.20;;;;;;5061356;28;20028;-69
2021/05/17 05:11:47;;;;;;;2.00;0.50;;;20.70;41.40;;;;;;5060826;28;20027;-63
2021/05/17 05:14:14;;;;;;;1.55;0.50;;;20.70;42.50;;;;;;5059404;28;20024;-61
2021/05/17 05:16:41;;;;;;;0.43;0.30;;;20.70;42.40;;;;;;5061074;28;20036;-63
2021/05/17 05:19:09;;;;;;;0.55;0.40;;;20.70;42.30;;;;;;5061185;28;20040;-62
2021/05/17 05:21:36;;;;;;;0.68;0.43;;;20.90;42.90;;;;;;5054754;28;20243;-70
2021/05/17 05:24:04;;;;;;;2.08;0.50;;;21.10;41.90;;;;;;5060490;28;20078;-65
2021/05/17 05:29:08;;;;;;;1.58;0.57;;;21.20;42.60;;;;;;5060386;28;20388;-66
2021/05/17 05:34:06;;;;;;;2.05;0.50;;;21.40;42.20;;;;;;5059641;28;20024;-61
2021/05/17 05:36:33;;;;;;;2.28;0.80;;;21.50;41.80;;;;;;5059679;28;20024;-66
2021/05/17 05:39:00;;;;;;;1.50;0.85;;;21.70;41.40;;;;;;5057821;28;20028;-68
2021/05/17 05:41:28;;;;;;;0.90;0.55;;;21.60;41.40;;;;;;5059076;28;20395;-62
2021/05/17 05:43:55;;;;;;;1.45;0.68;;;21.60;41.50;;;;;;5061494;28;20533;-66
2021/05/17 05:46:22;;;;;;;1.90;0.77;;;20.90;41.40;;;;;;5062825;28;20483;-63
2021/05/17 05:48:50;;;;;;;0.75;0.45;;;20.20;43.90;;;;;;5061907;28;20029;-68
2021/05/17 05:51:21;;;;;;;1.80;0.60;;;19.60;45.00;;;;;;5061996;28;20612;-65
2021/05/17 05:53:49;;;;;;;6.10;0.75;;;19.20;46.70;;;;;;5060662;28;20485;-63
2021/05/17 05:56:17;;;;;;;2.28;0.90;;;18.90;46.80;;;;;;5060181;28;20028;-67
2021/05/17 05:58:47;;;;;;;0.88;0.50;;;18.60;48.00;;;;;;5059587;28;20036;-67
2021/05/17 06:01:14;;;;;;;2.55;0.52;;;18.40;49.00;;;;;;5058430;28;20028;-65
2021/05/17 06:03:42;;;;;;;1.90;0.77;;;18.20;49.70;;;;;;5058568;28;20082;-66
2021/05/17 06:06:09;;;;;;;2.42;0.77;;;17.90;50.30;;;;;;5059790;28;20025;-66
2021/05/17 06:08:41;;;;;;;2.40;0.82;;;17.90;51.20;;;;;;5059229;28;20020;-69
2021/05/17 06:11:10;;;;;;;9.10;1.07;;;17.70;49.90;;;;;;5058145;28;20470;-67
2021/05/17 06:13:39;;;;;;;7.60;2.40;;;17.50;50.70;;;;;;5060032;28;20225;-68
2021/05/17 06:16:08;;;;;;;5.15;1.77;;;17.40;51.40;;;;;;5061403;28;20031;-68
2021/05/17 06:18:36;;;;;;;4.95;0.90;;;17.30;51.30;;;;;;5058954;28;20067;-68
2021/05/17 06:21:04;;;;;;;7.07;1.10;;;17.10;52.90;;;;;;5054988;28;20040;-69
2021/05/17 06:23:33;;;;;;;4.28;0.95;;;17.00;53.10;;;;;;5059195;28;20024;-71
2021/05/17 06:26:01;;;;;;;4.93;1.38;;;16.70;54.00;;;;;;5062548;28;20035;-69
2021/05/17 06:28:43;;;;;;;7.50;1.20;;;16.60;54.80;;;;;;5061370;28;20036;-68
2021/05/17 06:31:12;;;;;;;4.93;1.77;;;16.50;55.70;;;;;;5060468;28;20033;-66
2021/05/17 06:33:58;;;;;;;4.18;1.10;;;16.50;55.40;;;;;;5061751;28;20082;-70
2021/05/17 06:36:26;;;;;;;7.60;1.20;;;16.40;55.50;;;;;;5059741;28;20035;-67
2021/05/17 06:38:54;;;;;;;6.90;1.10;;;16.40;55.70;;;;;;5059744;28;20037;-72
2021/05/17 06:41:21;;;;;;;5.65;1.00;;;16.40;56.00;;;;;;5061038;28;20025;-68
2021/05/17 06:43:49;;;;;;;8.13;1.17;;;16.40;56.60;;;;;;5063007;28;20029;-73
2021/05/17 06:46:16;;;;;;;6.07;1.13;;;16.40;56.30;;;;;;5063538;28;20625;-69
2021/05/17 06:48:44;;;;;;;2.58;1.10;;;16.40;55.00;;;;;;5066603;28;20066;-70
2021/05/17 06:51:15;;;;;;;3.45;0.90;;;16.40;55.70;;;;;;5067318;28;20079;-70
2021/05/17 06:53:45;;;;;;;7.13;1.60;;;16.30;57.30;;;;;;5067131;28;20021;-71
2021/05/17 07:01:28;;;;;;;9.05;1.23;;;16.30;58.30;;;;;;5069200;28;20024;-68
2021/05/17 07:03:56;;;;;;;3.08;1.15;;;16.30;58.80;;;;;;5069089;28;20036;-77
2021/05/17 07:06:27;;;;;;;6.15;1.80;;;16.20;59.40;;;;;;5068950;28;20051;-69
2021/05/17 07:14:11;;;;;;;4.00;1.25;;;16.00;60.10;;;;;;5066965;28;20086;-69
2021/05/17 07:16:38;;;;;;;2.10;1.90;;;15.90;60.80;;;;;;5065778;28;20032;-72
2021/05/17 07:19:05;;;;;;;2.78;1.00;;;15.90;60.40;;;;;;5061727;28;20041;-74
2021/05/17 07:24:21;;;;;;;11.98;8.55;;;15.90;60.70;;;;;;5064900;28;20074;-69
2021/05/17 07:26:50;;;;;;;3.15;1.40;;;15.90;60.50;;;;;;5063007;28;20268;-69
2021/05/17 07:29:19;;;;;;;23.02;14.55;;;15.80;60.50;;;;;;5064368;28;20174;-75
2021/05/17 07:31:48;;;;;;;5.00;1.25;;;15.80;60.70;;;;;;5063418;28;20028;-67
2021/05/17 07:34:15;;;;;;;4.05;1.65;;;15.80;61.10;;;;;;5062512;28;20523;-67
2021/05/17 07:36:42;;;;;;;2.45;1.58;;;15.80;60.60;;;;;;5063128;28;20066;-71
2021/05/17 07:39:10;;;;;;;5.00;2.22;;;15.70;60.70;;;;;;5063138;28;20032;-68
2021/05/17 07:41:37;;;;;;;9.40;1.90;;;15.60;61.00;;;;;;5065775;28;20024;-67
2021/05/17 07:44:05;;;;;;;0.82;0.80;;;15.60;60.80;;;;;;5066471;28;20028;-72
2021/05/17 07:46:32;;;;;;;3.08;0.73;;;15.70;59.40;;;;;;5064592;28;20025;-76
2021/05/17 07:51:42;;;;;;;2.70;0.65;;;15.70;58.30;;;;;;5064924;28;20106;-72
2021/05/17 07:54:11;;;;;;;1.70;0.60;;;15.80;55.80;;;;;;5061124;28;20062;-71
2021/05/17 07:56:39;;;;;;;2.65;0.68;;;15.80;55.90;;;;;;5064711;28;20035;-72
2021/05/17 07:59:07;;;;;;;1.25;0.63;;;15.70;54.80;;;;;;5061380;28;20485;-67
2021/05/17 08:01:34;;;;;;;2.92;0.70;;;15.80;54.50;;;;;;5064980;28;20021;-67
2021/05/17 08:04:01;;;;;;;2.25;0.70;;;15.80;53.10;;;;;;5064921;28;20023;-66
2021/05/17 08:06:29;;;;;;;1.25;0.80;;;15.70;53.70;;;;;;5063503;28;20017;-73
2021/05/17 08:08:56;;;;;;;0.70;0.40;;;15.60;53.30;;;;;;5062681;28;20036;-70
2021/05/17 08:11:24;;;;;;;0.28;0.28;;;15.60;53.00;;;;;;5063187;28;20038;-67
2021/05/17 08:13:51;;;;;;;3.40;0.60;;;15.50;52.80;;;;;;5060407;28;20109;-69
2021/05/17 08:16:18;;;;;;;1.55;0.50;;;15.50;53.00;;;;;;5062135;28;20028;-66
2021/05/17 08:18:46;;;;;;;2.05;1.15;;;15.40;53.30;;;;;;5061417;28;20512;-65
2021/05/17 08:21:14;;;;;;;2.28;0.63;;;15.30;53.50;;;;;;5061895;28;20032;-66
2021/05/17 08:23:41;;;;;;;3.17;0.50;;;15.30;53.40;;;;;;5064264;28;20044;-72
2021/05/17 08:26:09;;;;;;;0.57;0.40;;;15.30;53.40;;;;;;5061497;28;20686;-64
2021/05/17 08:28:40;;;;;;;3.03;0.88;;;15.20;53.50;;;;;;5066362;28;20048;-64
2021/05/17 08:31:10;;;;;;;2.65;0.82;;;15.30;53.70;;;;;;5061014;28;20481;-70
2021/05/17 08:33:39;;;;;;;1.40;0.88;;;15.20;54.10;;;;;;5064551;28;20342;-64
2021/05/17 08:36:07;;;;;;;1.90;0.50;;;15.10;54.40;;;;;;5063872;28;20388;-64
2021/05/17 08:38:34;;;;;;;2.15;0.70;;;15.10;54.30;;;;;;5063827;28;20035;-64
2021/05/17 08:41:02;;;;;;;3.55;0.50;;;15.00;54.40;;;;;;5064257;28;20046;-65
2021/05/17 08:43:30;;;;;;;0.80;0.60;;;15.00;55.10;;;;;;5063574;28;20025;-74
2021/05/17 08:45:57;;;;;;;1.13;0.60;;;14.90;55.20;;;;;;5065974;28;20020;-75
2021/05/17 08:48:25;;;;;;;0.70;0.40;;;14.90;55.10;;;;;;5064574;28;20082;-65
2021/05/17 08:50:52;;;;;;;2.65;0.65;;;14.80;55.30;;;;;;5064826;28;20077;-63
2021/05/17 08:53:19;;;;;;;0.80;0.60;;;14.80;55.40;;;;;;5064746;28;20067;-74
2021/05/17 08:55:47;;;;;;;3.70;0.93;;;14.80;55.30;;;;;;5062664;28;20111;-66
2021/05/17 08:58:18;;;;;;;0.85;0.70;;;14.70;56.10;;;;;;5062578;28;20029;-68
2021/05/17 09:00:46;;;;;;;0.55;0.40;;;14.60;55.80;;;;;;5063595;28;20087;-68
2021/05/17 09:03:14;;;;;;;1.23;0.55;;;14.60;56.00;;;;;;4708839;28;9999603;-66
2021/05/17 09:05:48;;;;;;;1.85;0.50;;;14.60;56.10;;;;;;5058598;28;21264;-66
2021/05/17 09:08:15;;;;;;;4.05;0.70;;;14.50;56.00;;;;;;5056636;28;20016;-70
2021/05/17 09:10:43;;;;;;;1.33;0.55;;;14.40;56.20;;;;;;5057931;28;20036;-70
2021/05/17 09:13:17;;;;;;;4.35;0.55;;;14.40;56.60;;;;;;5058219;28;20198;-66
2021/05/17 09:15:54;;;;;;;2.25;0.60;;;14.30;57.00;;;;;;5056337;28;20024;-69
2021/05/17 09:18:30;;;;;;;1.95;0.88;;;14.20;57.10;;;;;;5057126;28;20048;-67
2021/05/17 09:21:07;;;;;;;0.70;0.40;;;14.10;57.60;;;;;;5054679;28;20556;-67
2021/05/17 09:23:37;;;;;;;2.15;0.60;;;14.10;57.70;;;;;;5056726;28;20024;-69
2021/05/17 09:26:17;;;;;;;0.95;0.60;;;14.00;58.20;;;;;;5055531;28;20020;-69
2021/05/17 09:28:46;;;;;;;2.70;0.57;;;13.90;58.80;;;;;;5056531;28;20029;-71
2021/05/17 09:31:14;;;;;;;1.27;0.80;;;13.70;59.30;;;;;;5056186;28;20078;-66
2021/05/17 09:33:53;;;;;;;0.73;0.50;;;13.70;59.60;;;;;;5055357;28;20065;-69
2021/05/17 09:36:30;;;;;;;2.38;0.88;;;13.50;60.10;;;;;;5056847;28;20259;-66
2021/05/17 09:39:09;;;;;;;1.95;1.17;;;13.50;60.50;;;;;;5056629;28;20039;-68
2021/05/17 09:41:44;;;;;;;1.95;1.20;;;13.40;61.20;;;;;;5056724;28;20388;-72
2021/05/17 09:44:17;;;;;;;1.70;0.88;;;13.20;61.90;;;;;;5058328;28;20029;-76
2021/05/17 09:47:00;;;;;;;;;;;13.00;62.60;;;;;;5057417;28;20475;-75
2021/05/17 09:49:33;;;;;;;0.90;0.60;;;13.00;62.40;;;;;;5054409;28;19953;-71
2021/05/17 09:52:08;;;;;;;;;;;12.90;62.50;;;;;;5057226;28;20041;-71
2021/05/17 09:54:53;;;;;;;5.88;3.17;;;12.70;63.90;;;;;;5055395;28;19912;-72
2021/05/17 09:57:22;;;;;;;6.05;4.30;;;12.70;64.60;;;;;;5052719;28;20025;-66
2021/05/17 09:59:51;;;;;;;15.77;11.13;;;12.60;64.10;;;;;;5055777;28;20135;-68
2021/05/17 10:02:43;;;;;;;2.30;1.83;;;12.60;64.00;;;;;;5054940;28;20128;-70
2021/05/17 10:05:31;;;;;;;29.60;17.08;;;12.60;64.20;;;;;;5050960;28;20021;-73
2021/05/17 10:08:03;;;;;;;6.28;4.20;;;12.40;65.00;;;;;;5044955;28;20078;-70
2021/05/17 10:10:31;;;;;;;2.97;1.70;;;12.30;65.20;;;;;;5058742;28;20021;-72
2021/05/17 10:13:01;;;;;;;2.55;0.88;;;12.20;65.30;;;;;;5059194;28;20647;-67
2021/05/17 10:15:36;;;;;;;1.60;0.70;;;12.00;65.40;;;;;;5056371;28;20278;-67
2021/05/17 10:18:04;;;;;;;1.17;0.77;;;11.90;65.60;;;;;;5058035;28;20024;-68
2021/05/17 10:20:31;;;;;;;0.75;0.70;;;11.80;66.30;;;;;;5057087;28;20535;-71
2021/05/17 10:22:59;;;;;;;1.70;0.70;;;11.70;66.80;;;;;;5060082;28;20027;-71
2021/05/17 10:25:31;;;;;;;0.38;0.35;;;11.70;66.10;;;;;;5058582;28;20020;-74
2021/05/17 10:28:10;;;;;;;1.17;0.75;;;11.80;65.30;;;;;;5059595;28;20035;-74
2021/05/17 10:30:38;;;;;;;1.02;0.60;;;11.90;64.50;;;;;;5056765;28;20028;-73
2021/05/17 10:33:10;;;;;;;1.40;0.70;;;11.90;65.60;;;;;;5060383;28;20025;-71
2021/05/17 10:35:43;;;;;;;2.38;0.60;;;11.90;66.00;;;;;;5061145;28;20055;-67
2021/05/17 10:38:22;;;;;;;1.58;0.82;;;11.80;65.90;;;;;;5059702;28;20440;-66
2021/05/17 10:40:53;;;;;;;0.80;0.63;;;11.70;66.30;;;;;;5058506;28;20024;-71
2021/05/17 10:44:01;;;;;;;2.05;0.70;;;11.60;66.80;;;;;;5060070;28;20029;-65
2021/05/17 10:46:40;;;;;;;3.25;0.70;;;11.60;67.20;;;;;;5060108;28;20447;-67
2021/05/17 10:49:29;;;;;;;1.23;1.13;;;11.60;67.40;;;;;;5058308;28;20028;-65
2021/05/17 10:52:10;;;;;;;2.65;0.77;;;11.60;67.60;;;;;;5058881;28;20082;-67
2021/05/17 10:54:43;;;;;;;3.10;0.85;;;11.60;67.70;;;;;;5060055;28;20048;-65
2021/05/17 10:58:07;;;;;;;6.72;1.30;;;11.50;68.00;;;;;;5059439;28;20029;-64
2021/05/17 11:00:27;;;;;;;4.55;1.00;;;11.40;68.50;;;;;;5055485;28;20520;-65
2021/05/17 11:03:14;;;;;;;3.08;1.00;;;11.30;68.70;;;;;;5057779;28;20348;-65
2021/05/17 11:05:43;;;;;;;1.73;0.55;;;11.20;69.20;;;;;;5057830;28;20058;-71
2021/05/17 11:08:13;;;;;;;1.45;0.65;;;11.10;69.60;;;;;;5057414;28;20527;-65
2021/05/17 11:10:50;;;;;;;7.95;0.85;;;11.00;69.30;;;;;;5060593;28;20021;-65
2021/05/17 11:13:20;;;;;;;1.52;0.60;;;10.90;69.70;;;;;;5058313;28;20279;-70
2021/05/17 11:15:58;;;;;;;1.42;0.70;;;10.70;70.30;;;;;;5058106;28;20528;-64
2021/05/17 11:18:30;;;;;;;2.13;0.90;;;10.70;71.20;;;;;;5058770;28;20044;-69
2021/05/17 11:21:04;;;;;;;2.40;0.88;;;10.60;71.90;;;;;;5060288;28;20020;-67
2021/05/17 11:23:37;;;;;;;2.00;0.98;;;10.60;72.80;;;;;;5059724;28;20021;-70
2021/05/17 11:26:13;;;;;;;2.05;0.90;;;10.50;72.80;;;;;;5061342;28;20523;-72
2021/05/17 11:28:41;;;;;;;4.55;1.50;;;10.40;73.20;;;;;;5057855;28;20345;-66
2021/05/17 11:31:18;;;;;;;3.65;1.38;;;10.40;73.20;;;;;;4708082;28;10000394;-71
2021/05/17 11:33:53;;;;;;;2.58;1.40;;;10.50;73.00;;;;;;5065612;28;20040;-72
2021/05/17 11:36:21;;;;;;;3.03;1.48;;;10.30;72.80;;;;;;5060267;28;20718;-67
2021/05/17 11:39:10;;;;;;;3.25;1.20;;;10.30;73.60;;;;;;5063158;28;20290;-67
2021/05/17 11:41:44;;;;;;;4.45;1.60;;;10.20;75.00;;;;;;5064275;28;20658;-72
2021/05/17 11:44:17;;;;;;;2.17;1.17;;;10.30;74.90;;;;;;5062825;28;20068;-70
2021/05/17 11:46:47;;;;;;;1.83;1.20;;;10.30;74.70;;;;;;5063799;28;20532;-65
2021/05/17 11:49:20;;;;;;;2.83;1.15;;;10.20;74.70;;;;;;5063788;28;20136;-65
2021/05/17 11:51:52;;;;;;;1.30;0.93;;;10.00;75.30;;;;;;5063205;28;20024;-69
2021/05/17 11:54:22;;;;;;;2.80;1.30;;;9.90;76.60;;;;;;5062878;28;20033;-67
2021/05/17 11:56:55;;;;;;;1.60;0.90;;;9.70;77.00;;;;;;5060916;28;20052;-65
2021/05/17 11:59:25;;;;;;;2.00;1.20;;;9.60;77.50;;;;;;5062967;28;20027;-73
2021/05/17 12:01:55;;;;;;;1.90;1.10;;;9.50;78.50;;;;;;5060210;28;20328;-73
2021/05/17 12:04:28;;;;;;;4.65;1.30;;;9.40;77.80;;;;;;5062306;28;20016;-69
2021/05/17 12:07:00;;;;;;;1.70;1.20;;;9.40;77.70;;;;;;5061902;28;20017;-71
2021/05/17 12:09:41;;;;;;;2.85;1.20;;;9.30;78.20;;;;;;5062523;28;20476;-72
2021/05/17 12:12:10;;;;;;;3.38;1.73;;;9.30;79.50;;;;;;5063357;28;20507;-69
2021/05/17 12:14:43;;;;;;;4.32;1.30;;;9.20;80.10;;;;;;5061721;28;20403;-66
2021/05/17 12:17:32;;;;;;;6.07;1.75;;;9.10;80.40;;;;;;5063161;28;20034;-71
2021/05/17 12:20:03;;;;;;;7.63;1.60;;;9.00;80.40;;;;;;5061673;28;20393;-70
2021/05/17 12:22:35;;;;;;;8.65;2.10;;;9.00;80.60;;;;;;5061749;28;20043;-65
2021/05/17 12:25:09;;;;;;;6.75;2.65;;;8.90;81.00;;;;;;5061261;28;20355;-71
2021/05/17 12:27:37;;;;;;;15.23;6.75;;;8.80;82.50;;;;;;5060616;28;20498;-66
2021/05/17 12:30:15;;;;;;;17.20;7.05;;;8.90;81.40;;;;;;5062848;28;20508;-71
2021/05/17 12:32:45;;;;;;;13.55;7.53;;;9.00;80.90;;;;;;5062424;28;20056;-69
2021/05/17 12:35:29;;;;;;;15.20;7.60;;;9.10;80.40;;;;;;5060646;28;20607;-73
2021/05/17 12:38:03;;;;;;;16.75;5.65;;;9.00;80.20;;;;;;5060170;28;20062;-66
2021/05/17 12:40:40;;;;;;;14.85;4.80;;;9.00;81.30;;;;;;5062765;28;20031;-73
2021/05/17 12:43:14;;;;;;;18.23;4.95;;;8.90;81.80;;;;;;5063448;28;20648;-73
2021/05/17 12:46:02;;;;;;;11.07;4.07;;;8.90;81.70;;;;;;5063951;28;20024;-65
2021/05/17 12:48:41;;;;;;;14.93;4.75;;;8.80;82.00;;;;;;5063087;28;20380;-71
2021/05/17 12:51:20;;;;;;;11.95;3.55;;;8.80;81.90;;;;;;5062032;28;20020;-67
2021/05/17 12:53:48;;;;;;;10.75;4.40;;;8.80;81.60;;;;;;5061078;28;20122;-66
2021/05/17 12:56:32;;;;;;;7.03;2.72;;;8.70;81.20;;;;;;5062468;28;20029;-69
2021/05/17 12:59:14;;;;;;;14.65;3.75;;;8.70;82.10;;;;;;5061852;28;20024;-65
2021/05/17 13:01:42;;;;;;;15.17;3.33;;;8.70;81.40;;;;;;5062352;28;20813;-68
2021/05/17 13:04:10;;;;;;;10.48;3.20;;;8.70;82.10;;;;;;5060337;28;20273;-64
2021/05/17 13:06:40;;;;;;;11.88;3.50;;;8.60;82.00;;;;;;5061946;28;20025;-68
2021/05/17 13:09:20;;;;;;;16.50;4.80;;;8.70;82.10;;;;;;5055215;28;20086;-70
2021/05/17 13:11:56;;;;;;;18.48;3.92;;;8.70;81.90;;;;;;5061805;28;20035;-67
2021/05/17 13:14:23;;;;;;;18.30;3.30;;;8.60;81.90;;;;;;5059902;28;20032;-65
2021/05/17 13:16:54;;;;;;;11.88;2.78;;;8.60;82.50;;;;;;5062196;28;20462;-67
2021/05/17 13:19:58;;;;;;;14.85;3.28;;;8.60;82.70;;;;;;5057274;28;20089;-68
2021/05/17 13:30:40;;;;;;;11.45;2.95;;;8.30;85.00;;;;;;5065074;28;20043;-64
2021/05/17 13:33:09;;;;;;;12.93;3.20;;;8.30;85.40;;;;;;5064265;28;20439;-68
2021/05/17 13:35:36;;;;;;;7.15;2.90;;;8.30;85.00;;;;;;5064985;28;20103;-67
2021/05/17 13:38:03;;;;;;;9.55;3.25;;;8.30;85.40;;;;;;5065019;28;20017;-73
2021/05/17 13:40:31;;;;;;;9.57;3.30;;;8.20;85.50;;;;;;5062791;28;20494;-65